<?xml version="1.0" encoding="UTF-8" standalone="no" ?>
<gpx xmlns="http://www.topografix.com/GPX/1/1" xmlns:xsi="http://www.w3.org/2001/XMLSchema-instance" xsi:schemaLocation="http://www.topografix.com/GPX/1/1 http://www.topografix.com/GPX/1/1/gpx.xsd" version="1.1" creator="VisuGPX - https://www.visugpx.com">
  <metadata>
    <name>Ailefroide et barre des écrins</name>
  </metadata>
  <trk>
    <name><![CDATA[Ailefroide J1 20.07.20]]></name>
    <trkseg>
      <trkpt lat="44.88423" lon="6.44554">
        <ele>1501.24</ele>
        <time>2020-07-20T11:15:05Z</time>
      </trkpt>
      <trkpt lat="44.88421" lon="6.44551">
        <ele>1498.83</ele>
        <time>2020-07-20T11:15:07Z</time>
      </trkpt>
      <trkpt lat="44.88418" lon="6.44539">
        <ele>1503.16</ele>
        <time>2020-07-20T11:15:16Z</time>
      </trkpt>
      <trkpt lat="44.88383" lon="6.44357">
        <ele>1509.41</ele>
        <time>2020-07-20T11:17:23Z</time>
      </trkpt>
      <trkpt lat="44.88382" lon="6.44352">
        <ele>1509.89</ele>
        <time>2020-07-20T11:17:27Z</time>
      </trkpt>
      <trkpt lat="44.88382" lon="6.44338">
        <ele>1510.37</ele>
        <time>2020-07-20T11:17:35Z</time>
      </trkpt>
      <trkpt lat="44.88364" lon="6.44317">
        <ele>1512.29</ele>
        <time>2020-07-20T11:17:56Z</time>
      </trkpt>
      <trkpt lat="44.8835" lon="6.443">
        <ele>1514.69</ele>
        <time>2020-07-20T11:18:13Z</time>
      </trkpt>
      <trkpt lat="44.88338" lon="6.4425">
        <ele>1519.5</ele>
        <time>2020-07-20T11:18:50Z</time>
      </trkpt>
      <trkpt lat="44.88333" lon="6.44227">
        <ele>1522.87</ele>
        <time>2020-07-20T11:19:14Z</time>
      </trkpt>
      <trkpt lat="44.88331" lon="6.44226">
        <ele>1522.87</ele>
        <time>2020-07-20T11:19:16Z</time>
      </trkpt>
      <trkpt lat="44.88314" lon="6.44211">
        <ele>1526.71</ele>
        <time>2020-07-20T11:19:44Z</time>
      </trkpt>
      <trkpt lat="44.88267" lon="6.44184">
        <ele>1531.52</ele>
        <time>2020-07-20T11:20:37Z</time>
      </trkpt>
      <trkpt lat="44.88245" lon="6.44153">
        <ele>1535.36</ele>
        <time>2020-07-20T11:21:14Z</time>
      </trkpt>
      <trkpt lat="44.8822" lon="6.44132">
        <ele>1537.77</ele>
        <time>2020-07-20T11:21:50Z</time>
      </trkpt>
      <trkpt lat="44.87993" lon="6.43788">
        <ele>1535.84</ele>
        <time>2020-07-20T11:27:45Z</time>
      </trkpt>
      <trkpt lat="44.87984" lon="6.43783">
        <ele>1535.84</ele>
        <time>2020-07-20T11:27:54Z</time>
      </trkpt>
      <trkpt lat="44.87841" lon="6.43372">
        <ele>1542.57</ele>
        <time>2020-07-20T11:34:11Z</time>
      </trkpt>
      <trkpt lat="44.87833" lon="6.43332">
        <ele>1545.94</ele>
        <time>2020-07-20T11:34:46Z</time>
      </trkpt>
      <trkpt lat="44.87625" lon="6.42849">
        <ele>1547.38</ele>
        <time>2020-07-20T11:42:23Z</time>
      </trkpt>
      <trkpt lat="44.87598" lon="6.4277">
        <ele>1551.71</ele>
        <time>2020-07-20T11:43:44Z</time>
      </trkpt>
      <trkpt lat="44.87599" lon="6.42746">
        <ele>1555.07</ele>
        <time>2020-07-20T11:44:22Z</time>
      </trkpt>
      <trkpt lat="44.8758" lon="6.42716">
        <ele>1559.4</ele>
        <time>2020-07-20T11:45:06Z</time>
      </trkpt>
      <trkpt lat="44.87552" lon="6.42692">
        <ele>1563.24</ele>
        <time>2020-07-20T11:45:46Z</time>
      </trkpt>
      <trkpt lat="44.87543" lon="6.42654">
        <ele>1567.57</ele>
        <time>2020-07-20T11:46:27Z</time>
      </trkpt>
      <trkpt lat="44.87524" lon="6.4261">
        <ele>1571.89</ele>
        <time>2020-07-20T11:47:25Z</time>
      </trkpt>
      <trkpt lat="44.87512" lon="6.42578">
        <ele>1575.74</ele>
        <time>2020-07-20T11:48:02Z</time>
      </trkpt>
      <trkpt lat="44.87502" lon="6.4254">
        <ele>1579.58</ele>
        <time>2020-07-20T11:48:40Z</time>
      </trkpt>
      <trkpt lat="44.87484" lon="6.42515">
        <ele>1583.43</ele>
        <time>2020-07-20T11:49:14Z</time>
      </trkpt>
      <trkpt lat="44.87465" lon="6.42493">
        <ele>1586.79</ele>
        <time>2020-07-20T11:49:48Z</time>
      </trkpt>
      <trkpt lat="44.8746" lon="6.42468">
        <ele>1591.6</ele>
        <time>2020-07-20T11:50:24Z</time>
      </trkpt>
      <trkpt lat="44.8744" lon="6.42475">
        <ele>1595.93</ele>
        <time>2020-07-20T11:51:03Z</time>
      </trkpt>
      <trkpt lat="44.8742" lon="6.42452">
        <ele>1600.25</ele>
        <time>2020-07-20T11:51:39Z</time>
      </trkpt>
      <trkpt lat="44.87399" lon="6.42432">
        <ele>1605.54</ele>
        <time>2020-07-20T11:52:19Z</time>
      </trkpt>
      <trkpt lat="44.87391" lon="6.42399">
        <ele>1609.86</ele>
        <time>2020-07-20T11:52:59Z</time>
      </trkpt>
      <trkpt lat="44.87383" lon="6.42347">
        <ele>1614.67</ele>
        <time>2020-07-20T11:53:41Z</time>
      </trkpt>
      <trkpt lat="44.87373" lon="6.42303">
        <ele>1619.48</ele>
        <time>2020-07-20T11:54:17Z</time>
      </trkpt>
      <trkpt lat="44.87371" lon="6.423">
        <ele>1619.48</ele>
        <time>2020-07-20T11:54:21Z</time>
      </trkpt>
      <trkpt lat="44.87368" lon="6.42275">
        <ele>1623.8</ele>
        <time>2020-07-20T11:54:53Z</time>
      </trkpt>
      <trkpt lat="44.87364" lon="6.42245">
        <ele>1628.61</ele>
        <time>2020-07-20T11:55:29Z</time>
      </trkpt>
      <trkpt lat="44.87347" lon="6.42199">
        <ele>1633.9</ele>
        <time>2020-07-20T11:56:17Z</time>
      </trkpt>
      <trkpt lat="44.87334" lon="6.42096">
        <ele>1639.19</ele>
        <time>2020-07-20T11:57:41Z</time>
      </trkpt>
      <trkpt lat="44.87317" lon="6.42062">
        <ele>1643.99</ele>
        <time>2020-07-20T11:58:14Z</time>
      </trkpt>
      <trkpt lat="44.87303" lon="6.4203">
        <ele>1648.8</ele>
        <time>2020-07-20T11:58:48Z</time>
      </trkpt>
      <trkpt lat="44.87295" lon="6.42013">
        <ele>1652.16</ele>
        <time>2020-07-20T11:59:06Z</time>
      </trkpt>
      <trkpt lat="44.8728" lon="6.41983">
        <ele>1656.01</ele>
        <time>2020-07-20T11:59:41Z</time>
      </trkpt>
      <trkpt lat="44.87275" lon="6.41968">
        <ele>1659.37</ele>
        <time>2020-07-20T11:59:57Z</time>
      </trkpt>
      <trkpt lat="44.87251" lon="6.41928">
        <ele>1666.1</ele>
        <time>2020-07-20T12:00:50Z</time>
      </trkpt>
      <trkpt lat="44.87252" lon="6.41894">
        <ele>1671.87</ele>
        <time>2020-07-20T12:01:26Z</time>
      </trkpt>
      <trkpt lat="44.87253" lon="6.41864">
        <ele>1677.64</ele>
        <time>2020-07-20T12:02:02Z</time>
      </trkpt>
      <trkpt lat="44.87252" lon="6.41832">
        <ele>1683.89</ele>
        <time>2020-07-20T12:02:40Z</time>
      </trkpt>
      <trkpt lat="44.87276" lon="6.4182">
        <ele>1688.21</ele>
        <time>2020-07-20T12:03:13Z</time>
      </trkpt>
      <trkpt lat="44.87293" lon="6.41813">
        <ele>1693.5</ele>
        <time>2020-07-20T12:03:44Z</time>
      </trkpt>
      <trkpt lat="44.87274" lon="6.41781">
        <ele>1699.27</ele>
        <time>2020-07-20T12:04:23Z</time>
      </trkpt>
      <trkpt lat="44.87273" lon="6.41756">
        <ele>1704.07</ele>
        <time>2020-07-20T12:04:54Z</time>
      </trkpt>
      <trkpt lat="44.87264" lon="6.41722">
        <ele>1707.92</ele>
        <time>2020-07-20T12:05:31Z</time>
      </trkpt>
      <trkpt lat="44.87266" lon="6.41688">
        <ele>1712.73</ele>
        <time>2020-07-20T12:06:06Z</time>
      </trkpt>
      <trkpt lat="44.87253" lon="6.41653">
        <ele>1717.53</ele>
        <time>2020-07-20T12:06:42Z</time>
      </trkpt>
      <trkpt lat="44.87253" lon="6.41616">
        <ele>1722.82</ele>
        <time>2020-07-20T12:07:21Z</time>
      </trkpt>
      <trkpt lat="44.87261" lon="6.41605">
        <ele>1726.18</ele>
        <time>2020-07-20T12:07:39Z</time>
      </trkpt>
      <trkpt lat="44.87276" lon="6.41582">
        <ele>1732.43</ele>
        <time>2020-07-20T12:08:19Z</time>
      </trkpt>
      <trkpt lat="44.87288" lon="6.41565">
        <ele>1737.72</ele>
        <time>2020-07-20T12:08:55Z</time>
      </trkpt>
      <trkpt lat="44.87287" lon="6.41533">
        <ele>1742.05</ele>
        <time>2020-07-20T12:09:29Z</time>
      </trkpt>
      <trkpt lat="44.87288" lon="6.41499">
        <ele>1746.37</ele>
        <time>2020-07-20T12:10:09Z</time>
      </trkpt>
      <trkpt lat="44.87307" lon="6.41474">
        <ele>1751.66</ele>
        <time>2020-07-20T12:10:49Z</time>
      </trkpt>
      <trkpt lat="44.87317" lon="6.4144">
        <ele>1757.43</ele>
        <time>2020-07-20T12:11:29Z</time>
      </trkpt>
      <trkpt lat="44.87301" lon="6.41435">
        <ele>1762.23</ele>
        <time>2020-07-20T12:12:04Z</time>
      </trkpt>
      <trkpt lat="44.87275" lon="6.41414">
        <ele>1768.48</ele>
        <time>2020-07-20T12:12:44Z</time>
      </trkpt>
      <trkpt lat="44.87285" lon="6.41389">
        <ele>1773.77</ele>
        <time>2020-07-20T12:13:23Z</time>
      </trkpt>
      <trkpt lat="44.87292" lon="6.41365">
        <ele>1781.46</ele>
        <time>2020-07-20T12:14:20Z</time>
      </trkpt>
      <trkpt lat="44.87314" lon="6.41363">
        <ele>1786.75</ele>
        <time>2020-07-20T12:14:54Z</time>
      </trkpt>
      <trkpt lat="44.87307" lon="6.41337">
        <ele>1791.07</ele>
        <time>2020-07-20T12:15:26Z</time>
      </trkpt>
      <trkpt lat="44.87289" lon="6.41312">
        <ele>1796.36</ele>
        <time>2020-07-20T12:16:07Z</time>
      </trkpt>
      <trkpt lat="44.8731" lon="6.41298">
        <ele>1801.17</ele>
        <time>2020-07-20T12:16:41Z</time>
      </trkpt>
      <trkpt lat="44.87321" lon="6.41308">
        <ele>1804.53</ele>
        <time>2020-07-20T12:17:13Z</time>
      </trkpt>
      <trkpt lat="44.87319" lon="6.41278">
        <ele>1809.82</ele>
        <time>2020-07-20T12:17:58Z</time>
      </trkpt>
      <trkpt lat="44.87306" lon="6.41254">
        <ele>1814.63</ele>
        <time>2020-07-20T12:18:34Z</time>
      </trkpt>
      <trkpt lat="44.87323" lon="6.41238">
        <ele>1818.95</ele>
        <time>2020-07-20T12:19:13Z</time>
      </trkpt>
      <trkpt lat="44.87319" lon="6.41219">
        <ele>1823.76</ele>
        <time>2020-07-20T12:19:48Z</time>
      </trkpt>
      <trkpt lat="44.87336" lon="6.41223">
        <ele>1827.6</ele>
        <time>2020-07-20T12:20:23Z</time>
      </trkpt>
      <trkpt lat="44.8732" lon="6.41192">
        <ele>1832.89</ele>
        <time>2020-07-20T12:21:03Z</time>
      </trkpt>
      <trkpt lat="44.87321" lon="6.4119">
        <ele>1832.89</ele>
        <time>2020-07-20T12:21:05Z</time>
      </trkpt>
      <trkpt lat="44.87344" lon="6.41182">
        <ele>1838.66</ele>
        <time>2020-07-20T12:21:47Z</time>
      </trkpt>
      <trkpt lat="44.87336" lon="6.41166">
        <ele>1842.5</ele>
        <time>2020-07-20T12:22:08Z</time>
      </trkpt>
      <trkpt lat="44.87344" lon="6.41148">
        <ele>1846.83</ele>
        <time>2020-07-20T12:22:45Z</time>
      </trkpt>
      <trkpt lat="44.87327" lon="6.41136">
        <ele>1851.64</ele>
        <time>2020-07-20T12:23:23Z</time>
      </trkpt>
      <trkpt lat="44.87334" lon="6.41118">
        <ele>1856.92</ele>
        <time>2020-07-20T12:24:00Z</time>
      </trkpt>
      <trkpt lat="44.87356" lon="6.4111">
        <ele>1861.25</ele>
        <time>2020-07-20T12:24:33Z</time>
      </trkpt>
      <trkpt lat="44.87374" lon="6.41149">
        <ele>1866.54</ele>
        <time>2020-07-20T12:25:22Z</time>
      </trkpt>
      <trkpt lat="44.8737" lon="6.41161">
        <ele>1869.9</ele>
        <time>2020-07-20T12:27:37Z</time>
      </trkpt>
      <trkpt lat="44.87371" lon="6.4116">
        <ele>1873.75</ele>
        <time>2020-07-20T12:29:45Z</time>
      </trkpt>
      <trkpt lat="44.87381" lon="6.41173">
        <ele>1877.59</ele>
        <time>2020-07-20T12:30:33Z</time>
      </trkpt>
      <trkpt lat="44.87392" lon="6.41189">
        <ele>1883.36</ele>
        <time>2020-07-20T12:31:11Z</time>
      </trkpt>
      <trkpt lat="44.87395" lon="6.41161">
        <ele>1887.21</ele>
        <time>2020-07-20T12:31:48Z</time>
      </trkpt>
      <trkpt lat="44.87392" lon="6.41127">
        <ele>1892.49</ele>
        <time>2020-07-20T12:32:27Z</time>
      </trkpt>
      <trkpt lat="44.874" lon="6.41097">
        <ele>1896.82</ele>
        <time>2020-07-20T12:33:05Z</time>
      </trkpt>
      <trkpt lat="44.87406" lon="6.41064">
        <ele>1901.63</ele>
        <time>2020-07-20T12:33:46Z</time>
      </trkpt>
      <trkpt lat="44.87408" lon="6.41037">
        <ele>1905.95</ele>
        <time>2020-07-20T12:34:24Z</time>
      </trkpt>
      <trkpt lat="44.87405" lon="6.4101">
        <ele>1910.28</ele>
        <time>2020-07-20T12:34:56Z</time>
      </trkpt>
      <trkpt lat="44.87416" lon="6.41015">
        <ele>1914.12</ele>
        <time>2020-07-20T12:35:33Z</time>
      </trkpt>
      <trkpt lat="44.87432" lon="6.41042">
        <ele>1920.37</ele>
        <time>2020-07-20T12:36:10Z</time>
      </trkpt>
      <trkpt lat="44.87443" lon="6.41078">
        <ele>1925.18</ele>
        <time>2020-07-20T12:36:51Z</time>
      </trkpt>
      <trkpt lat="44.87452" lon="6.41116">
        <ele>1930.95</ele>
        <time>2020-07-20T12:37:33Z</time>
      </trkpt>
      <trkpt lat="44.87453" lon="6.41117">
        <ele>1930.95</ele>
        <time>2020-07-20T12:37:35Z</time>
      </trkpt>
      <trkpt lat="44.87457" lon="6.41118">
        <ele>1936.23</ele>
        <time>2020-07-20T12:38:14Z</time>
      </trkpt>
      <trkpt lat="44.87465" lon="6.41085">
        <ele>1942</ele>
        <time>2020-07-20T12:38:51Z</time>
      </trkpt>
      <trkpt lat="44.87475" lon="6.4105">
        <ele>1946.81</ele>
        <time>2020-07-20T12:39:35Z</time>
      </trkpt>
      <trkpt lat="44.87476" lon="6.41014">
        <ele>1951.61</ele>
        <time>2020-07-20T12:40:14Z</time>
      </trkpt>
      <trkpt lat="44.87478" lon="6.40983">
        <ele>1956.42</ele>
        <time>2020-07-20T12:40:52Z</time>
      </trkpt>
      <trkpt lat="44.87481" lon="6.4097">
        <ele>1959.78</ele>
        <time>2020-07-20T12:41:10Z</time>
      </trkpt>
      <trkpt lat="44.87476" lon="6.4094">
        <ele>1963.63</ele>
        <time>2020-07-20T12:41:47Z</time>
      </trkpt>
      <trkpt lat="44.87471" lon="6.4091">
        <ele>1968.44</ele>
        <time>2020-07-20T12:42:25Z</time>
      </trkpt>
      <trkpt lat="44.87462" lon="6.40882">
        <ele>1974.2</ele>
        <time>2020-07-20T12:43:02Z</time>
      </trkpt>
      <trkpt lat="44.87463" lon="6.40869">
        <ele>1977.57</ele>
        <time>2020-07-20T12:43:21Z</time>
      </trkpt>
      <trkpt lat="44.87467" lon="6.40842">
        <ele>1981.9</ele>
        <time>2020-07-20T12:43:55Z</time>
      </trkpt>
      <trkpt lat="44.87475" lon="6.40807">
        <ele>1988.14</ele>
        <time>2020-07-20T12:44:36Z</time>
      </trkpt>
      <trkpt lat="44.87479" lon="6.40782">
        <ele>1992.47</ele>
        <time>2020-07-20T12:45:13Z</time>
      </trkpt>
      <trkpt lat="44.87443" lon="6.40743">
        <ele>1998.24</ele>
        <time>2020-07-20T12:46:46Z</time>
      </trkpt>
      <trkpt lat="44.87436" lon="6.40727">
        <ele>2002.08</ele>
        <time>2020-07-20T12:47:03Z</time>
      </trkpt>
      <trkpt lat="44.87449" lon="6.40723">
        <ele>2006.41</ele>
        <time>2020-07-20T12:47:41Z</time>
      </trkpt>
      <trkpt lat="44.87453" lon="6.40696">
        <ele>2011.7</ele>
        <time>2020-07-20T12:48:17Z</time>
      </trkpt>
      <trkpt lat="44.8746" lon="6.40666">
        <ele>2017.94</ele>
        <time>2020-07-20T12:48:57Z</time>
      </trkpt>
      <trkpt lat="44.87459" lon="6.40631">
        <ele>2021.31</ele>
        <time>2020-07-20T12:49:32Z</time>
      </trkpt>
      <trkpt lat="44.87459" lon="6.40591">
        <ele>2026.6</ele>
        <time>2020-07-20T12:50:13Z</time>
      </trkpt>
      <trkpt lat="44.87459" lon="6.40554">
        <ele>2031.88</ele>
        <time>2020-07-20T12:50:53Z</time>
      </trkpt>
      <trkpt lat="44.87462" lon="6.40526">
        <ele>2037.65</ele>
        <time>2020-07-20T12:51:28Z</time>
      </trkpt>
      <trkpt lat="44.87464" lon="6.40502">
        <ele>2042.94</ele>
        <time>2020-07-20T12:52:01Z</time>
      </trkpt>
      <trkpt lat="44.87459" lon="6.40472">
        <ele>2047.75</ele>
        <time>2020-07-20T12:52:38Z</time>
      </trkpt>
      <trkpt lat="44.87473" lon="6.40466">
        <ele>2053.51</ele>
        <time>2020-07-20T12:53:17Z</time>
      </trkpt>
      <trkpt lat="44.87487" lon="6.40487">
        <ele>2058.8</ele>
        <time>2020-07-20T12:53:52Z</time>
      </trkpt>
      <trkpt lat="44.87495" lon="6.40509">
        <ele>2063.13</ele>
        <time>2020-07-20T12:54:20Z</time>
      </trkpt>
      <trkpt lat="44.87506" lon="6.40545">
        <ele>2067.93</ele>
        <time>2020-07-20T12:54:59Z</time>
      </trkpt>
      <trkpt lat="44.87519" lon="6.40535">
        <ele>2076.59</ele>
        <time>2020-07-20T12:56:02Z</time>
      </trkpt>
      <trkpt lat="44.87524" lon="6.40499">
        <ele>2081.87</ele>
        <time>2020-07-20T12:56:41Z</time>
      </trkpt>
      <trkpt lat="44.87533" lon="6.4047">
        <ele>2086.2</ele>
        <time>2020-07-20T12:57:15Z</time>
      </trkpt>
      <trkpt lat="44.87535" lon="6.40441">
        <ele>2090.52</ele>
        <time>2020-07-20T12:57:49Z</time>
      </trkpt>
      <trkpt lat="44.87533" lon="6.40409">
        <ele>2094.85</ele>
        <time>2020-07-20T12:58:25Z</time>
      </trkpt>
      <trkpt lat="44.87521" lon="6.40374">
        <ele>2099.66</ele>
        <time>2020-07-20T12:59:03Z</time>
      </trkpt>
      <trkpt lat="44.87512" lon="6.40343">
        <ele>2103.98</ele>
        <time>2020-07-20T12:59:39Z</time>
      </trkpt>
      <trkpt lat="44.87504" lon="6.40318">
        <ele>2109.75</ele>
        <time>2020-07-20T13:00:15Z</time>
      </trkpt>
      <trkpt lat="44.87483" lon="6.40283">
        <ele>2114.08</ele>
        <time>2020-07-20T13:01:03Z</time>
      </trkpt>
      <trkpt lat="44.8748" lon="6.40268">
        <ele>2117.44</ele>
        <time>2020-07-20T13:01:22Z</time>
      </trkpt>
      <trkpt lat="44.87469" lon="6.40235">
        <ele>2121.77</ele>
        <time>2020-07-20T13:01:58Z</time>
      </trkpt>
      <trkpt lat="44.87455" lon="6.40203">
        <ele>2125.61</ele>
        <time>2020-07-20T13:02:34Z</time>
      </trkpt>
      <trkpt lat="44.87445" lon="6.40171">
        <ele>2130.42</ele>
        <time>2020-07-20T13:03:10Z</time>
      </trkpt>
      <trkpt lat="44.8743" lon="6.40141">
        <ele>2134.74</ele>
        <time>2020-07-20T13:03:45Z</time>
      </trkpt>
      <trkpt lat="44.8742" lon="6.40108">
        <ele>2139.07</ele>
        <time>2020-07-20T13:04:20Z</time>
      </trkpt>
      <trkpt lat="44.87407" lon="6.40075">
        <ele>2142.44</ele>
        <time>2020-07-20T13:04:53Z</time>
      </trkpt>
      <trkpt lat="44.87399" lon="6.40032">
        <ele>2145.8</ele>
        <time>2020-07-20T13:05:30Z</time>
      </trkpt>
      <trkpt lat="44.87375" lon="6.39948">
        <ele>2148.68</ele>
        <time>2020-07-20T13:06:35Z</time>
      </trkpt>
      <trkpt lat="44.87337" lon="6.39829">
        <ele>2152.53</ele>
        <time>2020-07-20T13:09:08Z</time>
      </trkpt>
      <trkpt lat="44.87327" lon="6.3977">
        <ele>2155.89</ele>
        <time>2020-07-20T13:10:51Z</time>
      </trkpt>
      <trkpt lat="44.87309" lon="6.39749">
        <ele>2163.1</ele>
        <time>2020-07-20T13:20:12Z</time>
      </trkpt>
      <trkpt lat="44.87309" lon="6.39726">
        <ele>2169.35</ele>
        <time>2020-07-20T13:20:47Z</time>
      </trkpt>
      <trkpt lat="44.87313" lon="6.39713">
        <ele>2173.2</ele>
        <time>2020-07-20T13:21:15Z</time>
      </trkpt>
      <trkpt lat="44.87308" lon="6.39684">
        <ele>2176.56</ele>
        <time>2020-07-20T13:21:54Z</time>
      </trkpt>
      <trkpt lat="44.87305" lon="6.39659">
        <ele>2181.85</ele>
        <time>2020-07-20T13:22:25Z</time>
      </trkpt>
      <trkpt lat="44.87289" lon="6.3963">
        <ele>2185.21</ele>
        <time>2020-07-20T13:23:04Z</time>
      </trkpt>
      <trkpt lat="44.87283" lon="6.39602">
        <ele>2188.58</ele>
        <time>2020-07-20T13:23:39Z</time>
      </trkpt>
      <trkpt lat="44.87279" lon="6.39572">
        <ele>2192.9</ele>
        <time>2020-07-20T13:24:13Z</time>
      </trkpt>
      <trkpt lat="44.87277" lon="6.39546">
        <ele>2196.75</ele>
        <time>2020-07-20T13:24:52Z</time>
      </trkpt>
      <trkpt lat="44.8726" lon="6.39482">
        <ele>2203</ele>
        <time>2020-07-20T13:26:00Z</time>
      </trkpt>
      <trkpt lat="44.87253" lon="6.39451">
        <ele>2206.84</ele>
        <time>2020-07-20T13:26:37Z</time>
      </trkpt>
      <trkpt lat="44.87249" lon="6.39421">
        <ele>2212.13</ele>
        <time>2020-07-20T13:27:12Z</time>
      </trkpt>
      <trkpt lat="44.87255" lon="6.39409">
        <ele>2216.94</ele>
        <time>2020-07-20T13:27:46Z</time>
      </trkpt>
      <trkpt lat="44.87271" lon="6.39399">
        <ele>2222.22</ele>
        <time>2020-07-20T13:28:23Z</time>
      </trkpt>
      <trkpt lat="44.87265" lon="6.39388">
        <ele>2225.59</ele>
        <time>2020-07-20T13:28:39Z</time>
      </trkpt>
      <trkpt lat="44.87257" lon="6.39381">
        <ele>2229.92</ele>
        <time>2020-07-20T13:28:56Z</time>
      </trkpt>
      <trkpt lat="44.87255" lon="6.39378">
        <ele>2229.92</ele>
        <time>2020-07-20T13:29:03Z</time>
      </trkpt>
      <trkpt lat="44.87236" lon="6.39377">
        <ele>2234.24</ele>
        <time>2020-07-20T13:29:33Z</time>
      </trkpt>
      <trkpt lat="44.87226" lon="6.39374">
        <ele>2240.01</ele>
        <time>2020-07-20T13:30:01Z</time>
      </trkpt>
      <trkpt lat="44.87214" lon="6.39375">
        <ele>2245.78</ele>
        <time>2020-07-20T13:30:33Z</time>
      </trkpt>
      <trkpt lat="44.87206" lon="6.39366">
        <ele>2250.58</ele>
        <time>2020-07-20T13:31:00Z</time>
      </trkpt>
      <trkpt lat="44.87227" lon="6.39343">
        <ele>2256.83</ele>
        <time>2020-07-20T13:31:40Z</time>
      </trkpt>
      <trkpt lat="44.87232" lon="6.3934">
        <ele>2260.2</ele>
        <time>2020-07-20T13:31:53Z</time>
      </trkpt>
      <trkpt lat="44.8725" lon="6.39352">
        <ele>2265</ele>
        <time>2020-07-20T13:32:29Z</time>
      </trkpt>
      <trkpt lat="44.87248" lon="6.39349">
        <ele>2270.77</ele>
        <time>2020-07-20T13:32:49Z</time>
      </trkpt>
      <trkpt lat="44.87251" lon="6.39343">
        <ele>2274.14</ele>
        <time>2020-07-20T13:33:04Z</time>
      </trkpt>
      <trkpt lat="44.87251" lon="6.39343">
        <ele>2273.66</ele>
        <time>2020-07-20T13:33:05Z</time>
      </trkpt>
      <trkpt lat="44.87255" lon="6.39336">
        <ele>2279.9</ele>
        <time>2020-07-20T13:33:27Z</time>
      </trkpt>
      <trkpt lat="44.87255" lon="6.39336">
        <ele>2276.54</ele>
        <time>2020-07-20T13:33:28Z</time>
      </trkpt>
      <trkpt lat="44.87263" lon="6.3933">
        <ele>2281.35</ele>
        <time>2020-07-20T13:33:48Z</time>
      </trkpt>
      <trkpt lat="44.87266" lon="6.39329">
        <ele>2284.71</ele>
        <time>2020-07-20T13:34:07Z</time>
      </trkpt>
      <trkpt lat="44.87272" lon="6.39325">
        <ele>2288.56</ele>
        <time>2020-07-20T13:34:42Z</time>
      </trkpt>
      <trkpt lat="44.87276" lon="6.39321">
        <ele>2291.92</ele>
        <time>2020-07-20T13:34:59Z</time>
      </trkpt>
      <trkpt lat="44.87285" lon="6.39323">
        <ele>2295.28</ele>
        <time>2020-07-20T13:35:16Z</time>
      </trkpt>
      <trkpt lat="44.87299" lon="6.39324">
        <ele>2299.13</ele>
        <time>2020-07-20T13:35:43Z</time>
      </trkpt>
      <trkpt lat="44.87315" lon="6.39323">
        <ele>2304.42</ele>
        <time>2020-07-20T13:36:20Z</time>
      </trkpt>
      <trkpt lat="44.87319" lon="6.3932">
        <ele>2307.78</ele>
        <time>2020-07-20T13:36:30Z</time>
      </trkpt>
      <trkpt lat="44.87326" lon="6.39316">
        <ele>2311.15</ele>
        <time>2020-07-20T13:36:46Z</time>
      </trkpt>
      <trkpt lat="44.87321" lon="6.39305">
        <ele>2315.47</ele>
        <time>2020-07-20T13:37:35Z</time>
      </trkpt>
      <trkpt lat="44.87321" lon="6.39294">
        <ele>2318.84</ele>
        <time>2020-07-20T13:38:14Z</time>
      </trkpt>
      <trkpt lat="44.87323" lon="6.3929">
        <ele>2322.2</ele>
        <time>2020-07-20T13:38:33Z</time>
      </trkpt>
      <trkpt lat="44.87327" lon="6.39283">
        <ele>2325.57</ele>
        <time>2020-07-20T13:38:52Z</time>
      </trkpt>
      <trkpt lat="44.87331" lon="6.39275">
        <ele>2331.81</ele>
        <time>2020-07-20T13:39:28Z</time>
      </trkpt>
      <trkpt lat="44.87325" lon="6.39267">
        <ele>2335.18</ele>
        <time>2020-07-20T13:39:42Z</time>
      </trkpt>
      <trkpt lat="44.87323" lon="6.39256">
        <ele>2338.54</ele>
        <time>2020-07-20T13:39:59Z</time>
      </trkpt>
      <trkpt lat="44.87316" lon="6.39249">
        <ele>2342.87</ele>
        <time>2020-07-20T13:40:27Z</time>
      </trkpt>
      <trkpt lat="44.87301" lon="6.3926">
        <ele>2346.72</ele>
        <time>2020-07-20T13:40:51Z</time>
      </trkpt>
      <trkpt lat="44.87298" lon="6.3926">
        <ele>2346.72</ele>
        <time>2020-07-20T13:40:55Z</time>
      </trkpt>
      <trkpt lat="44.87278" lon="6.39237">
        <ele>2350.56</ele>
        <time>2020-07-20T13:41:29Z</time>
      </trkpt>
      <trkpt lat="44.87271" lon="6.39237">
        <ele>2353.93</ele>
        <time>2020-07-20T13:41:44Z</time>
      </trkpt>
      <trkpt lat="44.8726" lon="6.39235">
        <ele>2359.69</ele>
        <time>2020-07-20T13:42:12Z</time>
      </trkpt>
      <trkpt lat="44.87244" lon="6.39236">
        <ele>2363.06</ele>
        <time>2020-07-20T13:42:43Z</time>
      </trkpt>
      <trkpt lat="44.8723" lon="6.3924">
        <ele>2366.9</ele>
        <time>2020-07-20T13:43:17Z</time>
      </trkpt>
      <trkpt lat="44.87233" lon="6.39237">
        <ele>2371.71</ele>
        <time>2020-07-20T13:43:48Z</time>
      </trkpt>
      <trkpt lat="44.87237" lon="6.39223">
        <ele>2377.96</ele>
        <time>2020-07-20T13:44:25Z</time>
      </trkpt>
      <trkpt lat="44.87238" lon="6.39211">
        <ele>2381.32</ele>
        <time>2020-07-20T13:44:42Z</time>
      </trkpt>
      <trkpt lat="44.87232" lon="6.39196">
        <ele>2387.09</ele>
        <time>2020-07-20T13:45:23Z</time>
      </trkpt>
      <trkpt lat="44.87229" lon="6.39177">
        <ele>2392.38</ele>
        <time>2020-07-20T13:45:56Z</time>
      </trkpt>
      <trkpt lat="44.87234" lon="6.39159">
        <ele>2397.67</ele>
        <time>2020-07-20T13:46:25Z</time>
      </trkpt>
      <trkpt lat="44.87237" lon="6.39115">
        <ele>2402.95</ele>
        <time>2020-07-20T13:47:21Z</time>
      </trkpt>
      <trkpt lat="44.8724" lon="6.39086">
        <ele>2408.24</ele>
        <time>2020-07-20T13:47:51Z</time>
      </trkpt>
      <trkpt lat="44.87244" lon="6.39047">
        <ele>2410.64</ele>
        <time>2020-07-20T13:48:22Z</time>
      </trkpt>
      <trkpt lat="44.87242" lon="6.38978">
        <ele>2414.01</ele>
        <time>2020-07-20T13:49:04Z</time>
      </trkpt>
      <trkpt lat="44.87245" lon="6.38946">
        <ele>2409.68</ele>
        <time>2020-07-20T13:49:28Z</time>
      </trkpt>
      <trkpt lat="44.87253" lon="6.38914">
        <ele>2413.05</ele>
        <time>2020-07-20T13:50:03Z</time>
      </trkpt>
      <trkpt lat="44.87266" lon="6.38859">
        <ele>2416.89</ele>
        <time>2020-07-20T13:50:54Z</time>
      </trkpt>
      <trkpt lat="44.87277" lon="6.38831">
        <ele>2421.22</ele>
        <time>2020-07-20T13:51:25Z</time>
      </trkpt>
      <trkpt lat="44.87282" lon="6.38858">
        <ele>2426.5</ele>
        <time>2020-07-20T13:51:55Z</time>
      </trkpt>
      <trkpt lat="44.87293" lon="6.3887">
        <ele>2432.75</ele>
        <time>2020-07-20T13:52:23Z</time>
      </trkpt>
      <trkpt lat="44.87298" lon="6.38881">
        <ele>2436.6</ele>
        <time>2020-07-20T13:52:38Z</time>
      </trkpt>
      <trkpt lat="44.87301" lon="6.38896">
        <ele>2441.41</ele>
        <time>2020-07-20T13:53:02Z</time>
      </trkpt>
      <trkpt lat="44.87308" lon="6.38916">
        <ele>2447.65</ele>
        <time>2020-07-20T13:53:34Z</time>
      </trkpt>
      <trkpt lat="44.87326" lon="6.38906">
        <ele>2452.46</ele>
        <time>2020-07-20T13:54:08Z</time>
      </trkpt>
      <trkpt lat="44.87332" lon="6.38894">
        <ele>2455.82</ele>
        <time>2020-07-20T13:54:25Z</time>
      </trkpt>
      <trkpt lat="44.87335" lon="6.38921">
        <ele>2460.63</ele>
        <time>2020-07-20T13:54:48Z</time>
      </trkpt>
      <trkpt lat="44.87334" lon="6.38933">
        <ele>2464</ele>
        <time>2020-07-20T13:55:02Z</time>
      </trkpt>
      <trkpt lat="44.8734" lon="6.38937">
        <ele>2469.76</ele>
        <time>2020-07-20T13:55:32Z</time>
      </trkpt>
      <trkpt lat="44.87341" lon="6.38944">
        <ele>2473.13</ele>
        <time>2020-07-20T13:55:44Z</time>
      </trkpt>
      <trkpt lat="44.87339" lon="6.38954">
        <ele>2476.01</ele>
        <time>2020-07-20T13:55:53Z</time>
      </trkpt>
      <trkpt lat="44.87332" lon="6.38985">
        <ele>2474.09</ele>
        <time>2020-07-20T13:56:15Z</time>
      </trkpt>
      <trkpt lat="44.87333" lon="6.38998">
        <ele>2477.45</ele>
        <time>2020-07-20T13:56:26Z</time>
      </trkpt>
      <trkpt lat="44.87329" lon="6.39034">
        <ele>2477.94</ele>
        <time>2020-07-20T13:56:45Z</time>
      </trkpt>
    </trkseg>
  </trk>
</gpx>